sensor_id;sensor_type;location;lat;lon;timestamp;temperature;humidity
19085;DHT22;9675;51.538;6.728;2024-01-27T00:00:11;6.60;99.90
19085;DHT22;9675;51.538;6.728;2024-01-27T00:02:41;6.50;99.90
19085;DHT22;9675;51.538;6.728;2024-01-27T00:05:08;6.50;99.90
19085;DHT22;9675;51.538;6.728;2024-01-27T00:07:35;6.50;99.90
19085;DHT22;9675;51.538;6.728;2024-01-27T00:10:02;6.50;99.90
19085;DHT22;9675;51.538;6.728;2024-01-27T00:12:30;6.50;99.90
19085;DHT22;9675;51.538;6.728;2024-01-27T00:14:57;6.40;99.90
19085;DHT22;9675;51.538;6.728;2024-01-27T00:17:24;6.40;99.90
19085;DHT22;9675;51.538;6.728;2024-01-27T00:19:54;6.40;99.90
19085;DHT22;9675;51.538;6.728;2024-01-27T00:22:21;6.40;99.90
19085;DHT22;9675;51.538;6.728;2024-01-27T00:24:48;6.40;99.90
19085;DHT22;9675;51.538;6.728;2024-01-27T00:27:16;6.40;99.90
19085;DHT22;9675;51.538;6.728;2024-01-27T00:29:43;6.40;99.90
19085;DHT22;9675;51.538;6.728;2024-01-27T00:32:10;6.40;99.90
19085;DHT22;9675;51.538;6.728;2024-01-27T00:34:37;6.40;99.90
19085;DHT22;9675;51.538;6.728;2024-01-27T00:37:05;6.30;99.90
19085;DHT22;9675;51.538;6.728;2024-01-27T00:39:32;6.30;99.90
19085;DHT22;9675;51.538;6.728;2024-01-27T00:41:59;6.30;99.90
19085;DHT22;9675;51.538;6.728;2024-01-27T00:44:28;6.30;99.90
19085;DHT22;9675;51.538;6.728;2024-01-27T00:46:55;6.30;99.90
19085;DHT22;9675;51.538;6.728;2024-01-27T00:49:23;6.40;99.90
19085;DHT22;9675;51.538;6.728;2024-01-27T00:51:50;6.30;99.90
19085;DHT22;9675;51.538;6.728;2024-01-27T00:54:21;6.30;99.90
19085;DHT22;9675;51.538;6.728;2024-01-27T00:56:50;6.40;99.90
19085;DHT22;9675;51.538;6.728;2024-01-27T00:59:17;6.40;99.90
19085;DHT22;9675;51.538;6.728;2024-01-27T01:01:45;6.40;99.90
19085;DHT22;9675;51.538;6.728;2024-01-27T01:04:12;6.30;99.90
19085;DHT22;9675;51.538;6.728;2024-01-27T01:06:40;6.30;99.90
19085;DHT22;9675;51.538;6.728;2024-01-27T01:09:07;6.30;99.90
19085;DHT22;9675;51.538;6.728;2024-01-27T01:11:35;6.30;99.90
19085;DHT22;9675;51.538;6.728;2024-01-27T01:14:03;6.20;99.90
19085;DHT22;9675;51.538;6.728;2024-01-27T01:16:30;6.20;99.90
19085;DHT22;9675;51.538;6.728;2024-01-27T01:18:57;6.20;99.90
19085;DHT22;9675;51.538;6.728;2024-01-27T01:21:24;6.20;99.90
19085;DHT22;9675;51.538;6.728;2024-01-27T01:23:52;6.10;99.90
19085;DHT22;9675;51.538;6.728;2024-01-27T01:26:19;6.20;99.90
19085;DHT22;9675;51.538;6.728;2024-01-27T01:28:50;6.20;99.90
19085;DHT22;9675;51.538;6.728;2024-01-27T01:31:18;6.10;99.90
19085;DHT22;9675;51.538;6.728;2024-01-27T01:33:45;6.10;99.90
19085;DHT22;9675;51.538;6.728;2024-01-27T01:36:12;6.00;99.90
19085;DHT22;9675;51.538;6.728;2024-01-27T01:38:39;6.00;99.90
19085;DHT22;9675;51.538;6.728;2024-01-27T01:41:06;6.00;99.90
19085;DHT22;9675;51.538;6.728;2024-01-27T01:43:33;6.00;99.90
19085;DHT22;9675;51.538;6.728;2024-01-27T01:46:01;6.00;99.90
19085;DHT22;9675;51.538;6.728;2024-01-27T01:48:30;6.00;99.90
19085;DHT22;9675;51.538;6.728;2024-01-27T01:50:59;6.00;99.90
19085;DHT22;9675;51.538;6.728;2024-01-27T01:53:26;5.90;99.90
19085;DHT22;9675;51.538;6.728;2024-01-27T01:55:53;5.90;99.90
19085;DHT22;9675;51.538;6.728;2024-01-27T01:58:21;5.90;99.90
19085;DHT22;9675;51.538;6.728;2024-01-27T02:00:49;5.90;99.90
19085;DHT22;9675;51.538;6.728;2024-01-27T02:03:17;5.90;99.90
19085;DHT22;9675;51.538;6.728;2024-01-27T02:05:44;5.90;99.90
19085;DHT22;9675;51.538;6.728;2024-01-27T02:08:12;5.90;99.90
19085;DHT22;9675;51.538;6.728;2024-01-27T02:10:39;5.90;99.90
19085;DHT22;9675;51.538;6.728;2024-01-27T02:13:16;5.80;99.90
19085;DHT22;9675;51.538;6.728;2024-01-27T02:15:45;5.80;99.90
19085;DHT22;9675;51.538;6.728;2024-01-27T02:18:12;5.80;99.90
19085;DHT22;9675;51.538;6.728;2024-01-27T02:20:41;5.80;99.90
19085;DHT22;9675;51.538;6.728;2024-01-27T02:23:08;5.70;99.90
19085;DHT22;9675;51.538;6.728;2024-01-27T02:25:36;5.70;99.90
19085;DHT22;9675;51.538;6.728;2024-01-27T02:28:03;5.60;99.90
19085;DHT22;9675;51.538;6.728;2024-01-27T02:30:31;5.70;99.90
19085;DHT22;9675;51.538;6.728;2024-01-27T02:32:58;5.70;99.90
19085;DHT22;9675;51.538;6.728;2024-01-27T02:35:25;5.60;99.90
19085;DHT22;9675;51.538;6.728;2024-01-27T02:37:53;5.60;99.90
19085;DHT22;9675;51.538;6.728;2024-01-27T02:40:20;5.60;99.90
19085;DHT22;9675;51.538;6.728;2024-01-27T02:42:48;5.50;99.90
19085;DHT22;9675;51.538;6.728;2024-01-27T02:45:15;5.60;99.90
19085;DHT22;9675;51.538;6.728;2024-01-27T02:47:42;5.50;99.90
19085;DHT22;9675;51.538;6.728;2024-01-27T02:50:10;5.50;99.90
19085;DHT22;9675;51.538;6.728;2024-01-27T02:52:38;5.50;99.90
19085;DHT22;9675;51.538;6.728;2024-01-27T02:55:05;5.50;99.90
19085;DHT22;9675;51.538;6.728;2024-01-27T02:57:33;5.50;99.90
19085;DHT22;9675;51.538;6.728;2024-01-27T03:00:01;5.50;99.90
19085;DHT22;9675;51.538;6.728;2024-01-27T03:02:30;5.50;99.90
19085;DHT22;9675;51.538;6.728;2024-01-27T03:04:57;5.50;99.90
19085;DHT22;9675;51.538;6.728;2024-01-27T03:07:24;5.50;99.90
19085;DHT22;9675;51.538;6.728;2024-01-27T03:09:51;5.40;99.90
19085;DHT22;9675;51.538;6.728;2024-01-27T03:12:18;5.40;99.90
19085;DHT22;9675;51.538;6.728;2024-01-27T03:14:48;5.40;99.90
19085;DHT22;9675;51.538;6.728;2024-01-27T03:17:17;5.40;99.90
19085;DHT22;9675;51.538;6.728;2024-01-27T03:19:44;5.30;99.90
19085;DHT22;9675;51.538;6.728;2024-01-27T03:22:11;5.30;99.90
19085;DHT22;9675;51.538;6.728;2024-01-27T03:24:38;5.30;99.90
19085;DHT22;9675;51.538;6.728;2024-01-27T03:27:07;5.30;99.90
19085;DHT22;9675;51.538;6.728;2024-01-27T03:29:33;5.30;99.90
19085;DHT22;9675;51.538;6.728;2024-01-27T03:32:01;5.30;99.90
19085;DHT22;9675;51.538;6.728;2024-01-27T03:34:29;5.30;99.90
19085;DHT22;9675;51.538;6.728;2024-01-27T03:36:56;5.20;99.90
19085;DHT22;9675;51.538;6.728;2024-01-27T03:39:23;5.20;99.90
19085;DHT22;9675;51.538;6.728;2024-01-27T03:41:50;5.20;99.90
19085;DHT22;9675;51.538;6.728;2024-01-27T03:44:17;5.20;99.90
19085;DHT22;9675;51.538;6.728;2024-01-27T03:46:44;5.10;99.90
19085;DHT22;9675;51.538;6.728;2024-01-27T03:49:11;5.00;99.90
19085;DHT22;9675;51.538;6.728;2024-01-27T03:51:40;4.90;99.90
19085;DHT22;9675;51.538;6.728;2024-01-27T03:54:07;4.90;99.90
19085;DHT22;9675;51.538;6.728;2024-01-27T03:56:34;4.90;99.90
19085;DHT22;9675;51.538;6.728;2024-01-27T03:59:01;4.90;99.90
19085;DHT22;9675;51.538;6.728;2024-01-27T04:01:31;4.80;99.90
19085;DHT22;9675;51.538;6.728;2024-01-27T04:03:58;4.80;99.90
19085;DHT22;9675;51.538;6.728;2024-01-27T04:06:25;4.80;99.90
19085;DHT22;9675;51.538;6.728;2024-01-27T04:08:54;4.80;99.90
19085;DHT22;9675;51.538;6.728;2024-01-27T04:11:21;4.70;99.90
19085;DHT22;9675;51.538;6.728;2024-01-27T04:13:49;4.80;99.90
19085;DHT22;9675;51.538;6.728;2024-01-27T04:16:16;4.70;99.90
19085;DHT22;9675;51.538;6.728;2024-01-27T04:18:44;4.70;99.90
19085;DHT22;9675;51.538;6.728;2024-01-27T04:21:11;4.70;99.90
19085;DHT22;9675;51.538;6.728;2024-01-27T04:23:38;4.70;99.90
19085;DHT22;9675;51.538;6.728;2024-01-27T04:26:06;4.70;99.90
19085;DHT22;9675;51.538;6.728;2024-01-27T04:28:34;4.70;99.90
19085;DHT22;9675;51.538;6.728;2024-01-27T04:31:02;4.70;99.90
19085;DHT22;9675;51.538;6.728;2024-01-27T04:33:29;4.80;99.90
19085;DHT22;9675;51.538;6.728;2024-01-27T04:35:56;4.80;99.90
19085;DHT22;9675;51.538;6.728;2024-01-27T04:38:23;4.80;99.90
19085;DHT22;9675;51.538;6.728;2024-01-27T04:40:50;4.70;99.90
19085;DHT22;9675;51.538;6.728;2024-01-27T04:43:19;4.70;99.90
19085;DHT22;9675;51.538;6.728;2024-01-27T04:45:47;4.80;99.90
19085;DHT22;9675;51.538;6.728;2024-01-27T04:48:15;4.70;99.90
19085;DHT22;9675;51.538;6.728;2024-01-27T04:50:43;4.60;99.90
19085;DHT22;9675;51.538;6.728;2024-01-27T04:53:10;4.70;99.90
19085;DHT22;9675;51.538;6.728;2024-01-27T04:55:37;4.60;99.90
19085;DHT22;9675;51.538;6.728;2024-01-27T04:58:04;4.70;99.90
19085;DHT22;9675;51.538;6.728;2024-01-27T05:00:33;4.60;99.90
19085;DHT22;9675;51.538;6.728;2024-01-27T05:03:00;4.60;99.90
19085;DHT22;9675;51.538;6.728;2024-01-27T05:05:29;4.60;99.90
19085;DHT22;9675;51.538;6.728;2024-01-27T05:07:56;4.50;99.90
19085;DHT22;9675;51.538;6.728;2024-01-27T05:10:24;4.60;99.90
19085;DHT22;9675;51.538;6.728;2024-01-27T05:12:52;4.50;99.90
19085;DHT22;9675;51.538;6.728;2024-01-27T05:15:19;4.50;99.90
19085;DHT22;9675;51.538;6.728;2024-01-27T05:17:47;4.40;99.90
19085;DHT22;9675;51.538;6.728;2024-01-27T05:20:14;4.40;99.90
19085;DHT22;9675;51.538;6.728;2024-01-27T05:22:41;4.40;99.90
19085;DHT22;9675;51.538;6.728;2024-01-27T05:25:08;4.40;99.90
19085;DHT22;9675;51.538;6.728;2024-01-27T05:27:37;4.40;99.90
19085;DHT22;9675;51.538;6.728;2024-01-27T05:30:05;4.40;99.90
19085;DHT22;9675;51.538;6.728;2024-01-27T05:32:33;4.40;99.90
19085;DHT22;9675;51.538;6.728;2024-01-27T05:35:01;4.30;99.90
19085;DHT22;9675;51.538;6.728;2024-01-27T05:37:30;4.30;99.90
19085;DHT22;9675;51.538;6.728;2024-01-27T05:39:57;4.30;99.90
19085;DHT22;9675;51.538;6.728;2024-01-27T05:42:25;4.30;99.90
19085;DHT22;9675;51.538;6.728;2024-01-27T05:44:52;4.30;99.90
19085;DHT22;9675;51.538;6.728;2024-01-27T05:47:19;4.30;99.90
19085;DHT22;9675;51.538;6.728;2024-01-27T05:49:46;4.20;99.90
19085;DHT22;9675;51.538;6.728;2024-01-27T05:52:14;4.00;99.90
19085;DHT22;9675;51.538;6.728;2024-01-27T05:54:41;4.00;99.90
19085;DHT22;9675;51.538;6.728;2024-01-27T05:57:08;4.00;99.90
19085;DHT22;9675;51.538;6.728;2024-01-27T05:59:35;3.90;99.90
19085;DHT22;9675;51.538;6.728;2024-01-27T06:02:02;3.80;99.90
19085;DHT22;9675;51.538;6.728;2024-01-27T06:04:31;3.90;99.90
19085;DHT22;9675;51.538;6.728;2024-01-27T06:06:58;3.90;99.90
19085;DHT22;9675;51.538;6.728;2024-01-27T06:09:27;3.80;99.90
19085;DHT22;9675;51.538;6.728;2024-01-27T06:11:54;3.80;99.90
19085;DHT22;9675;51.538;6.728;2024-01-27T06:14:24;3.80;99.90
19085;DHT22;9675;51.538;6.728;2024-01-27T06:16:51;3.80;99.90
19085;DHT22;9675;51.538;6.728;2024-01-27T06:19:18;3.80;99.90
19085;DHT22;9675;51.538;6.728;2024-01-27T06:21:45;3.80;99.90
19085;DHT22;9675;51.538;6.728;2024-01-27T06:24:12;3.80;99.90
19085;DHT22;9675;51.538;6.728;2024-01-27T06:26:40;3.80;99.90
19085;DHT22;9675;51.538;6.728;2024-01-27T06:29:07;3.80;99.90
19085;DHT22;9675;51.538;6.728;2024-01-27T06:31:34;3.70;99.90
19085;DHT22;9675;51.538;6.728;2024-01-27T06:34:01;3.80;99.90
19085;DHT22;9675;51.538;6.728;2024-01-27T06:36:28;3.70;99.90
19085;DHT22;9675;51.538;6.728;2024-01-27T06:38:56;3.70;99.90
19085;DHT22;9675;51.538;6.728;2024-01-27T06:41:23;3.60;99.90
19085;DHT22;9675;51.538;6.728;2024-01-27T06:43:51;3.60;99.90
19085;DHT22;9675;51.538;6.728;2024-01-27T06:46:19;3.60;99.90
19085;DHT22;9675;51.538;6.728;2024-01-27T06:48:46;3.70;99.90
19085;DHT22;9675;51.538;6.728;2024-01-27T06:51:13;3.70;99.90
19085;DHT22;9675;51.538;6.728;2024-01-27T06:53:40;3.60;99.90
19085;DHT22;9675;51.538;6.728;2024-01-27T06:56:07;3.60;99.90
19085;DHT22;9675;51.538;6.728;2024-01-27T06:58:34;3.50;99.90
19085;DHT22;9675;51.538;6.728;2024-01-27T07:01:03;3.50;99.90
19085;DHT22;9675;51.538;6.728;2024-01-27T07:03:30;3.50;99.90
19085;DHT22;9675;51.538;6.728;2024-01-27T07:05:58;3.50;99.90
19085;DHT22;9675;51.538;6.728;2024-01-27T07:08:26;3.50;99.90
19085;DHT22;9675;51.538;6.728;2024-01-27T07:10:55;3.40;99.90
19085;DHT22;9675;51.538;6.728;2024-01-27T07:13:22;3.40;99.90
19085;DHT22;9675;51.538;6.728;2024-01-27T07:15:49;3.50;99.90
19085;DHT22;9675;51.538;6.728;2024-01-27T07:18:18;3.50;99.90
19085;DHT22;9675;51.538;6.728;2024-01-27T07:20:45;3.50;99.90
19085;DHT22;9675;51.538;6.728;2024-01-27T07:23:12;3.40;99.90
19085;DHT22;9675;51.538;6.728;2024-01-27T07:25:39;3.40;99.90
19085;DHT22;9675;51.538;6.728;2024-01-27T07:28:06;3.30;99.90
19085;DHT22;9675;51.538;6.728;2024-01-27T07:30:33;3.30;99.90
19085;DHT22;9675;51.538;6.728;2024-01-27T07:33:00;3.30;99.90
19085;DHT22;9675;51.538;6.728;2024-01-27T07:35:29;3.30;99.90
19085;DHT22;9675;51.538;6.728;2024-01-27T07:37:57;3.30;99.90
19085;DHT22;9675;51.538;6.728;2024-01-27T07:40:24;3.40;99.90
19085;DHT22;9675;51.538;6.728;2024-01-27T07:42:51;3.40;99.90
19085;DHT22;9675;51.538;6.728;2024-01-27T07:45:18;3.40;99.90
19085;DHT22;9675;51.538;6.728;2024-01-27T07:47:45;3.50;99.90
19085;DHT22;9675;51.538;6.728;2024-01-27T07:50:12;3.50;99.90
19085;DHT22;9675;51.538;6.728;2024-01-27T07:52:41;3.50;99.90
19085;DHT22;9675;51.538;6.728;2024-01-27T07:55:09;3.40;99.90
19085;DHT22;9675;51.538;6.728;2024-01-27T07:57:36;3.40;99.90
19085;DHT22;9675;51.538;6.728;2024-01-27T08:00:04;3.40;99.90
19085;DHT22;9675;51.538;6.728;2024-01-27T08:02:33;3.40;99.90
19085;DHT22;9675;51.538;6.728;2024-01-27T08:05:00;3.40;99.90
19085;DHT22;9675;51.538;6.728;2024-01-27T08:07:27;3.30;99.90
19085;DHT22;9675;51.538;6.728;2024-01-27T08:09:54;3.30;99.90
19085;DHT22;9675;51.538;6.728;2024-01-27T08:12:22;3.30;99.90
19085;DHT22;9675;51.538;6.728;2024-01-27T08:14:50;3.30;99.90
19085;DHT22;9675;51.538;6.728;2024-01-27T08:17:17;3.30;99.90
19085;DHT22;9675;51.538;6.728;2024-01-27T08:19:44;3.20;99.90
19085;DHT22;9675;51.538;6.728;2024-01-27T08:22:11;3.30;99.90
19085;DHT22;9675;51.538;6.728;2024-01-27T08:24:38;3.20;99.90
19085;DHT22;9675;51.538;6.728;2024-01-27T08:27:07;3.20;99.90
19085;DHT22;9675;51.538;6.728;2024-01-27T08:29:34;3.20;99.90
19085;DHT22;9675;51.538;6.728;2024-01-27T08:32:01;3.20;99.90
19085;DHT22;9675;51.538;6.728;2024-01-27T08:34:28;3.20;99.90
19085;DHT22;9675;51.538;6.728;2024-01-27T08:37:02;3.20;99.90
19085;DHT22;9675;51.538;6.728;2024-01-27T08:39:40;3.20;99.90
19085;DHT22;9675;51.538;6.728;2024-01-27T08:42:08;3.20;99.90
19085;DHT22;9675;51.538;6.728;2024-01-27T08:44:35;3.20;99.90
19085;DHT22;9675;51.538;6.728;2024-01-27T08:47:03;3.20;99.90
19085;DHT22;9675;51.538;6.728;2024-01-27T08:49:30;3.20;99.90
19085;DHT22;9675;51.538;6.728;2024-01-27T08:51:57;3.20;99.90
19085;DHT22;9675;51.538;6.728;2024-01-27T08:54:24;3.20;99.90
19085;DHT22;9675;51.538;6.728;2024-01-27T08:56:51;3.20;99.90
19085;DHT22;9675;51.538;6.728;2024-01-27T08:59:20;3.20;99.90
19085;DHT22;9675;51.538;6.728;2024-01-27T09:01:47;3.30;99.90
19085;DHT22;9675;51.538;6.728;2024-01-27T09:04:14;3.30;99.90
19085;DHT22;9675;51.538;6.728;2024-01-27T09:06:41;3.30;99.90
19085;DHT22;9675;51.538;6.728;2024-01-27T09:09:08;3.30;99.90
19085;DHT22;9675;51.538;6.728;2024-01-27T09:11:37;3.30;99.90
19085;DHT22;9675;51.538;6.728;2024-01-27T09:14:05;3.30;99.90
19085;DHT22;9675;51.538;6.728;2024-01-27T09:16:34;3.30;99.90
19085;DHT22;9675;51.538;6.728;2024-01-27T09:19:01;3.30;99.90
19085;DHT22;9675;51.538;6.728;2024-01-27T09:21:28;3.30;99.90
19085;DHT22;9675;51.538;6.728;2024-01-27T09:23:58;3.30;99.90
19085;DHT22;9675;51.538;6.728;2024-01-27T09:26:26;3.30;99.90
19085;DHT22;9675;51.538;6.728;2024-01-27T09:28:53;3.40;99.90
19085;DHT22;9675;51.538;6.728;2024-01-27T09:31:21;3.40;99.90
19085;DHT22;9675;51.538;6.728;2024-01-27T09:33:52;3.40;99.90
19085;DHT22;9675;51.538;6.728;2024-01-27T09:36:20;3.40;99.90
19085;DHT22;9675;51.538;6.728;2024-01-27T09:38:47;3.50;99.90
19085;DHT22;9675;51.538;6.728;2024-01-27T09:41:14;3.50;99.90
19085;DHT22;9675;51.538;6.728;2024-01-27T09:43:43;3.50;99.90
19085;DHT22;9675;51.538;6.728;2024-01-27T09:46:11;3.60;99.90
19085;DHT22;9675;51.538;6.728;2024-01-27T09:48:39;3.60;99.90
19085;DHT22;9675;51.538;6.728;2024-01-27T09:51:09;3.60;99.90
19085;DHT22;9675;51.538;6.728;2024-01-27T09:53:37;3.70;99.90
19085;DHT22;9675;51.538;6.728;2024-01-27T09:56:04;3.70;99.90
19085;DHT22;9675;51.538;6.728;2024-01-27T09:58:33;3.80;99.90
19085;DHT22;9675;51.538;6.728;2024-01-27T10:01:01;3.90;99.90
19085;DHT22;9675;51.538;6.728;2024-01-27T10:03:29;3.90;99.90
19085;DHT22;9675;51.538;6.728;2024-01-27T10:05:57;4.00;99.90
19085;DHT22;9675;51.538;6.728;2024-01-27T10:08:26;4.10;99.90
19085;DHT22;9675;51.538;6.728;2024-01-27T10:10:55;4.20;99.90
19085;DHT22;9675;51.538;6.728;2024-01-27T10:13:23;4.30;99.90
19085;DHT22;9675;51.538;6.728;2024-01-27T10:16:00;4.40;99.90
19085;DHT22;9675;51.538;6.728;2024-01-27T10:18:27;4.50;99.90
19085;DHT22;9675;51.538;6.728;2024-01-27T10:20:55;4.60;99.90
19085;DHT22;9675;51.538;6.728;2024-01-27T10:23:22;4.70;99.90
19085;DHT22;9675;51.538;6.728;2024-01-27T10:25:51;4.80;99.90
19085;DHT22;9675;51.538;6.728;2024-01-27T10:28:19;4.80;99.90
19085;DHT22;9675;51.538;6.728;2024-01-27T10:30:46;4.90;99.90
19085;DHT22;9675;51.538;6.728;2024-01-27T10:33:14;5.00;99.90
19085;DHT22;9675;51.538;6.728;2024-01-27T10:35:41;5.10;99.90
19085;DHT22;9675;51.538;6.728;2024-01-27T10:38:09;5.20;99.90
19085;DHT22;9675;51.538;6.728;2024-01-27T10:40:36;5.30;99.90
19085;DHT22;9675;51.538;6.728;2024-01-27T10:43:06;5.40;99.90
19085;DHT22;9675;51.538;6.728;2024-01-27T10:45:36;5.50;99.90
19085;DHT22;9675;51.538;6.728;2024-01-27T10:48:05;5.60;99.90
19085;DHT22;9675;51.538;6.728;2024-01-27T10:50:36;5.70;99.90
19085;DHT22;9675;51.538;6.728;2024-01-27T10:53:04;5.90;99.90
19085;DHT22;9675;51.538;6.728;2024-01-27T10:55:36;6.00;99.90
19085;DHT22;9675;51.538;6.728;2024-01-27T10:58:06;6.00;99.90
19085;DHT22;9675;51.538;6.728;2024-01-27T11:00:34;6.20;99.90
19085;DHT22;9675;51.538;6.728;2024-01-27T11:03:03;6.20;99.90
19085;DHT22;9675;51.538;6.728;2024-01-27T11:05:35;6.30;99.90
19085;DHT22;9675;51.538;6.728;2024-01-27T11:08:06;6.40;99.90
19085;DHT22;9675;51.538;6.728;2024-01-27T11:10:35;6.50;99.90
19085;DHT22;9675;51.538;6.728;2024-01-27T11:13:06;6.60;99.90
19085;DHT22;9675;51.538;6.728;2024-01-27T11:15:35;6.70;99.90
19085;DHT22;9675;51.538;6.728;2024-01-27T11:18:02;6.80;99.90
19085;DHT22;9675;51.538;6.728;2024-01-27T11:20:31;6.90;99.90
19085;DHT22;9675;51.538;6.728;2024-01-27T11:23:09;7.00;99.90
19085;DHT22;9675;51.538;6.728;2024-01-27T11:25:36;7.10;99.90
19085;DHT22;9675;51.538;6.728;2024-01-27T11:28:13;7.20;99.90
19085;DHT22;9675;51.538;6.728;2024-01-27T11:30:46;7.20;99.90
19085;DHT22;9675;51.538;6.728;2024-01-27T11:33:14;7.30;99.90
19085;DHT22;9675;51.538;6.728;2024-01-27T11:35:41;7.40;99.90
19085;DHT22;9675;51.538;6.728;2024-01-27T11:38:08;7.40;99.90
19085;DHT22;9675;51.538;6.728;2024-01-27T11:40:45;7.50;99.90
19085;DHT22;9675;51.538;6.728;2024-01-27T11:43:13;7.60;99.90
19085;DHT22;9675;51.538;6.728;2024-01-27T11:45:55;7.70;99.90
19085;DHT22;9675;51.538;6.728;2024-01-27T11:48:41;7.80;99.90
19085;DHT22;9675;51.538;6.728;2024-01-27T11:51:17;7.90;99.90
19085;DHT22;9675;51.538;6.728;2024-01-27T11:53:45;8.00;99.90
19085;DHT22;9675;51.538;6.728;2024-01-27T11:56:13;8.10;99.90
19085;DHT22;9675;51.538;6.728;2024-01-27T11:58:47;8.20;99.90
19085;DHT22;9675;51.538;6.728;2024-01-27T12:01:16;8.30;99.90
19085;DHT22;9675;51.538;6.728;2024-01-27T12:03:43;8.40;99.90
19085;DHT22;9675;51.538;6.728;2024-01-27T12:06:11;8.50;99.90
19085;DHT22;9675;51.538;6.728;2024-01-27T12:08:40;8.60;99.90
19085;DHT22;9675;51.538;6.728;2024-01-27T12:11:12;8.70;99.90
19085;DHT22;9675;51.538;6.728;2024-01-27T12:13:40;8.80;99.90
19085;DHT22;9675;51.538;6.728;2024-01-27T12:16:08;8.90;99.90
19085;DHT22;9675;51.538;6.728;2024-01-27T12:18:36;9.00;99.90
19085;DHT22;9675;51.538;6.728;2024-01-27T12:21:03;9.10;99.90
19085;DHT22;9675;51.538;6.728;2024-01-27T12:23:30;9.10;99.90
19085;DHT22;9675;51.538;6.728;2024-01-27T12:25:57;9.20;99.90
19085;DHT22;9675;51.538;6.728;2024-01-27T12:28:25;9.30;99.90
19085;DHT22;9675;51.538;6.728;2024-01-27T12:30:52;9.40;99.90
19085;DHT22;9675;51.538;6.728;2024-01-27T12:33:21;9.50;99.90
19085;DHT22;9675;51.538;6.728;2024-01-27T12:35:51;9.50;99.90
19085;DHT22;9675;51.538;6.728;2024-01-27T12:38:20;9.60;99.90
19085;DHT22;9675;51.538;6.728;2024-01-27T12:40:48;9.70;99.90
19085;DHT22;9675;51.538;6.728;2024-01-27T12:43:16;9.80;99.90
19085;DHT22;9675;51.538;6.728;2024-01-27T12:45:43;9.90;99.90
19085;DHT22;9675;51.538;6.728;2024-01-27T12:48:10;10.00;99.90
19085;DHT22;9675;51.538;6.728;2024-01-27T12:50:39;10.00;99.90
19085;DHT22;9675;51.538;6.728;2024-01-27T12:53:06;10.10;99.90
19085;DHT22;9675;51.538;6.728;2024-01-27T12:55:33;10.20;99.90
19085;DHT22;9675;51.538;6.728;2024-01-27T12:58:00;10.30;99.90
19085;DHT22;9675;51.538;6.728;2024-01-27T13:00:28;10.30;99.90
19085;DHT22;9675;51.538;6.728;2024-01-27T13:02:55;10.40;99.90
19085;DHT22;9675;51.538;6.728;2024-01-27T13:05:22;10.50;99.90
19085;DHT22;9675;51.538;6.728;2024-01-27T13:07:50;10.50;99.90
19085;DHT22;9675;51.538;6.728;2024-01-27T13:10:17;10.60;99.90
19085;DHT22;9675;51.538;6.728;2024-01-27T13:12:44;10.60;99.90
19085;DHT22;9675;51.538;6.728;2024-01-27T13:15:11;10.70;99.90
19085;DHT22;9675;51.538;6.728;2024-01-27T13:17:39;10.70;99.90
19085;DHT22;9675;51.538;6.728;2024-01-27T13:20:07;10.80;99.90
19085;DHT22;9675;51.538;6.728;2024-01-27T13:22:35;10.90;99.90
19085;DHT22;9675;51.538;6.728;2024-01-27T13:25:04;10.90;99.90
19085;DHT22;9675;51.538;6.728;2024-01-27T13:27:32;10.90;99.90
19085;DHT22;9675;51.538;6.728;2024-01-27T13:29:59;11.00;99.90
19085;DHT22;9675;51.538;6.728;2024-01-27T13:32:27;11.10;99.90
19085;DHT22;9675;51.538;6.728;2024-01-27T13:34:54;11.10;99.90
19085;DHT22;9675;51.538;6.728;2024-01-27T13:37:21;11.10;99.90
19085;DHT22;9675;51.538;6.728;2024-01-27T13:39:48;11.20;99.90
19085;DHT22;9675;51.538;6.728;2024-01-27T13:42:20;11.20;99.90
19085;DHT22;9675;51.538;6.728;2024-01-27T13:44:47;11.30;99.90
19085;DHT22;9675;51.538;6.728;2024-01-27T13:47:14;11.30;99.90
19085;DHT22;9675;51.538;6.728;2024-01-27T13:49:42;11.30;99.90
19085;DHT22;9675;51.538;6.728;2024-01-27T13:52:09;11.40;99.90
19085;DHT22;9675;51.538;6.728;2024-01-27T13:54:36;11.50;99.90
19085;DHT22;9675;51.538;6.728;2024-01-27T13:57:04;11.50;99.90
19085;DHT22;9675;51.538;6.728;2024-01-27T13:59:33;11.50;99.90
19085;DHT22;9675;51.538;6.728;2024-01-27T14:02:00;11.60;99.90
19085;DHT22;9675;51.538;6.728;2024-01-27T14:04:28;11.60;99.90
19085;DHT22;9675;51.538;6.728;2024-01-27T14:06:55;11.60;99.90
19085;DHT22;9675;51.538;6.728;2024-01-27T14:09:23;11.70;99.90
19085;DHT22;9675;51.538;6.728;2024-01-27T14:11:50;11.70;99.90
19085;DHT22;9675;51.538;6.728;2024-01-27T14:14:17;11.60;99.90
19085;DHT22;9675;51.538;6.728;2024-01-27T14:16:46;11.60;99.90
19085;DHT22;9675;51.538;6.728;2024-01-27T14:19:13;11.60;99.90
19085;DHT22;9675;51.538;6.728;2024-01-27T14:21:41;11.60;99.90
19085;DHT22;9675;51.538;6.728;2024-01-27T14:24:08;11.60;99.90
19085;DHT22;9675;51.538;6.728;2024-01-27T14:26:35;11.60;99.90
19085;DHT22;9675;51.538;6.728;2024-01-27T14:29:03;11.60;99.90
19085;DHT22;9675;51.538;6.728;2024-01-27T14:31:31;11.60;99.90
19085;DHT22;9675;51.538;6.728;2024-01-27T14:33:59;11.60;99.90
19085;DHT22;9675;51.538;6.728;2024-01-27T14:36:26;11.60;99.90
19085;DHT22;9675;51.538;6.728;2024-01-27T14:38:53;11.60;99.90
19085;DHT22;9675;51.538;6.728;2024-01-27T14:41:20;11.60;99.90
19085;DHT22;9675;51.538;6.728;2024-01-27T14:43:49;11.60;99.90
19085;DHT22;9675;51.538;6.728;2024-01-27T14:46:16;11.60;99.90
19085;DHT22;9675;51.538;6.728;2024-01-27T14:48:44;11.60;99.90
19085;DHT22;9675;51.538;6.728;2024-01-27T14:51:12;11.60;99.90
19085;DHT22;9675;51.538;6.728;2024-01-27T14:53:39;11.60;99.90
19085;DHT22;9675;51.538;6.728;2024-01-27T14:56:07;11.60;99.90
19085;DHT22;9675;51.538;6.728;2024-01-27T14:58:34;11.50;99.90
19085;DHT22;9675;51.538;6.728;2024-01-27T15:01:01;11.50;99.90
19085;DHT22;9675;51.538;6.728;2024-01-27T15:03:28;11.50;99.90
19085;DHT22;9675;51.538;6.728;2024-01-27T15:05:55;11.40;99.90
19085;DHT22;9675;51.538;6.728;2024-01-27T15:08:25;11.40;99.90
19085;DHT22;9675;51.538;6.728;2024-01-27T15:10:54;11.30;99.90
19085;DHT22;9675;51.538;6.728;2024-01-27T15:13:21;11.30;99.90
19085;DHT22;9675;51.538;6.728;2024-01-27T15:15:49;11.30;99.90
19085;DHT22;9675;51.538;6.728;2024-01-27T15:18:16;11.30;99.90
19085;DHT22;9675;51.538;6.728;2024-01-27T15:20:43;11.30;99.90
19085;DHT22;9675;51.538;6.728;2024-01-27T15:23:10;11.20;99.90
19085;DHT22;9675;51.538;6.728;2024-01-27T15:25:38;11.20;99.90
19085;DHT22;9675;51.538;6.728;2024-01-27T15:28:07;11.10;99.90
19085;DHT22;9675;51.538;6.728;2024-01-27T15:30:34;11.10;99.90
19085;DHT22;9675;51.538;6.728;2024-01-27T15:33:02;11.10;99.90
19085;DHT22;9675;51.538;6.728;2024-01-27T15:35:29;11.00;99.90
19085;DHT22;9675;51.538;6.728;2024-01-27T15:37:58;11.00;99.90
19085;DHT22;9675;51.538;6.728;2024-01-27T15:40:25;10.90;99.90
19085;DHT22;9675;51.538;6.728;2024-01-27T15:42:54;10.90;99.90
19085;DHT22;9675;51.538;6.728;2024-01-27T15:45:23;10.90;99.90
19085;DHT22;9675;51.538;6.728;2024-01-27T15:47:50;10.80;99.90
19085;DHT22;9675;51.538;6.728;2024-01-27T15:50:18;10.80;99.90
19085;DHT22;9675;51.538;6.728;2024-01-27T15:52:46;10.80;99.90
19085;DHT22;9675;51.538;6.728;2024-01-27T15:55:14;10.70;99.90
19085;DHT22;9675;51.538;6.728;2024-01-27T15:57:41;10.70;99.90
19085;DHT22;9675;51.538;6.728;2024-01-27T16:00:10;10.70;99.90